Terminal Aerodrome Forecast
Issued by NWS Sterling, VA

Home | Current Version | Previous Version | Text Only | Print | Product List | Glossary On
Versions: 1 2 3 4 5 6 7 8 9 10 11 12 13 14 15 16 17 18 19 20 21 22 23 24 25 26
730
FTUS41 KLWX 282326
TAFBWI
TAF
KBWI 282326Z 2900/3006 07008KT P6SM SCT008 OVC015
     FM290600 07006KT 5SM -DZ BKN008 OVC015
     FM291100 06006KT 3SM -RADZ OVC005
     FM291600 07006KT 5SM BR BKN008 OVC015
     FM292100 08006KT P6SM OVC015
     FM300200 07005KT 5SM -DZ BR BKN008 OVC015=

USA.gov is the U.S. government's official web portal to all federal, state and local government web resources and services.